Time;durP1;ratioP1;P1;durP2;ratioP2;P2;SDS_P1;SDS_P2;PMS_P1;PMS_P2;Temp;Humidity;BMP_temperature;BMP_pressure;BME280_temperature;BME280_humidity;BME280_pressure;Samples;Min_cycle;Max_cycle;Signal;HPM_P1;HPM_P2
2021/07/27 00:00:36;;;;;;;10.00;5.85;;;;;;;;;;5045423;28;20033;-78
2021/07/27 00:03:02;;;;;;;8.80;5.60;;;;;;;;;;5045768;28;20091;-78
2021/07/27 00:05:28;;;;;;;6.72;5.72;;;;;;;;;;5045954;28;20029;-78
2021/07/27 00:07:54;;;;;;;10.20;6.00;;;;;;;;;;5039450;28;20025;-78
2021/07/27 00:10:20;;;;;;;9.10;5.90;;;;;;;;;;5050043;28;20033;-78
2021/07/27 00:12:46;;;;;;;10.00;6.10;;;;;;;;;;5044558;28;20397;-78
2021/07/27 00:15:11;;;;;;;8.73;5.65;;;;;;;;;;5050400;28;20103;-77
2021/07/27 00:17:37;;;;;;;11.05;6.00;;;;;;;;;;5044792;28;20025;-78
2021/07/27 00:20:03;;;;;;;9.63;6.25;;;;;;;;;;5050831;28;20060;-78
2021/07/27 00:22:28;;;;;;;9.40;5.85;;;;;;;;;;5046406;28;20025;-78
2021/07/27 00:24:54;;;;;;;9.52;6.07;;;;;;;;;;5041783;28;20017;-78
2021/07/27 00:27:20;;;;;;;12.63;5.93;;;;;;;;;;5052382;28;21143;-78
2021/07/27 00:29:45;;;;;;;9.82;6.00;;;;;;;;;;5047798;28;20036;-78
2021/07/27 00:32:11;;;;;;;10.77;5.50;;;;;;;;;;5047158;28;20024;-78
2021/07/27 00:34:36;;;;;;;11.70;6.20;;;;;;;;;;5048047;28;20025;-77
2021/07/27 00:37:03;;;;;;;7.90;5.63;;;;;;;;;;5042792;28;20067;-78
2021/07/27 00:39:28;;;;;;;9.13;5.75;;;;;;;;;;5044757;28;20021;-78
2021/07/27 00:41:53;;;;;;;10.07;6.03;;;;;;;;;;5044918;28;20024;-78
2021/07/27 00:44:19;;;;;;;10.15;5.60;;;;;;;;;;5042488;28;20100;-77
2021/07/27 00:46:45;;;;;;;9.10;5.80;;;;;;;;;;5046810;28;20037;-78
2021/07/27 00:49:11;;;;;;;9.68;5.93;;;;;;;;;;5047619;28;20029;-77
2021/07/27 00:51:38;;;;;;;9.70;6.40;;;;;;;;;;5038423;28;20558;-77
2021/07/27 00:54:06;;;;;;;8.85;6.20;;;;;;;;;;5043164;28;20124;-78
2021/07/27 00:56:33;;;;;;;11.07;5.68;;;;;;;;;;5044719;28;20021;-78
2021/07/27 00:58:58;;;;;;;7.63;5.70;;;;;;;;;;5041644;28;20115;-78
2021/07/27 01:01:24;;;;;;;10.30;5.85;;;;;;;;;;5044714;28;20111;-78
2021/07/27 01:03:49;;;;;;;11.90;5.43;;;;;;;;;;5043550;28;20033;-78
2021/07/27 01:06:15;;;;;;;9.13;5.90;;;;;;;;;;5048160;28;20029;-78
2021/07/27 01:08:41;;;;;;;10.75;5.93;;;;;;;;;;5038408;28;20431;-78
2021/07/27 01:11:07;;;;;;;13.23;5.97;;;;;;;;;;5037079;28;20310;-78
2021/07/27 01:13:32;;;;;;;8.02;5.75;;;;;;;;;;5043162;28;20105;-78
2021/07/27 01:16:03;;;;;;;10.75;6.30;;;;;;;;;;5041589;28;20028;-78
2021/07/27 01:18:33;;;;;;;8.77;6.05;;;;;;;;;;5044693;28;20032;-77
2021/07/27 01:40:13;;;;;;;9.10;6.10;;;;;;;;;;5047678;28;20164;-78
2021/07/27 01:42:39;;;;;;;9.60;6.00;;;;;;;;;;5046304;28;20052;-78
2021/07/27 01:45:22;;;;;;;8.13;5.70;;;;;;;;;;5046284;28;20102;-78
2021/07/27 01:47:54;;;;;;;10.07;5.90;;;;;;;;;;5038132;28;20414;-77
2021/07/27 01:50:19;;;;;;;11.48;6.35;;;;;;;;;;5041653;28;20072;-78
2021/07/27 01:52:47;;;;;;;9.65;5.63;;;;;;;;;;5037919;28;20060;-78
2021/07/27 01:55:13;;;;;;;10.75;6.38;;;;;;;;;;5047554;28;20036;-77
2021/07/27 01:57:38;;;;;;;9.95;5.95;;;;;;;;;;5038891;28;20029;-78
2021/07/27 02:00:07;;;;;;;9.93;6.18;;;;;;;;;;5039744;28;20021;-77
2021/07/27 02:02:32;;;;;;;12.40;6.50;;;;;;;;;;5040049;28;20114;-78
2021/07/27 02:04:58;;;;;;;14.05;6.40;;;;;;;;;;5044174;28;20342;-78
2021/07/27 02:07:23;;;;;;;10.57;6.70;;;;;;;;;;5043130;28;20107;-77
2021/07/27 02:09:51;;;;;;;11.18;6.35;;;;;;;;;;5043846;28;20115;-77
2021/07/27 02:12:19;;;;;;;11.13;6.30;;;;;;;;;;5048091;28;20048;-78
2021/07/27 02:17:30;;;;;;;9.70;5.80;;;;;;;;;;5041485;28;20035;-78
2021/07/27 02:19:55;;;;;;;8.55;5.65;;;;;;;;;;5041320;28;20029;-78
2021/07/27 02:22:21;;;;;;;10.95;6.25;;;;;;;;;;5044832;28;20056;-77
2021/07/27 02:24:46;;;;;;;11.23;6.47;;;;;;;;;;5043124;28;20216;-78
2021/07/27 02:27:11;;;;;;;11.50;6.13;;;;;;;;;;5045782;28;20031;-77
2021/07/27 02:29:37;;;;;;;11.77;6.28;;;;;;;;;;5036944;28;20024;-78
2021/07/27 02:32:03;;;;;;;12.73;6.80;;;;;;;;;;5040641;28;20623;-78
2021/07/27 02:34:32;;;;;;;9.82;6.28;;;;;;;;;;5042043;28;20031;-78
2021/07/27 02:36:57;;;;;;;10.05;6.10;;;;;;;;;;5041949;28;20044;-78
2021/07/27 02:39:23;;;;;;;11.60;5.93;;;;;;;;;;5037685;28;20401;-78
2021/07/27 02:41:48;;;;;;;11.25;5.78;;;;;;;;;;5039984;28;20025;-78
2021/07/27 02:44:14;;;;;;;11.30;6.15;;;;;;;;;;5039073;28;20040;-77
2021/07/27 02:46:39;;;;;;;9.57;5.53;;;;;;;;;;5038458;28;20540;-78
2021/07/27 02:49:04;;;;;;;12.30;6.05;;;;;;;;;;5040193;28;20112;-78
2021/07/27 02:51:30;;;;;;;12.75;6.32;;;;;;;;;;5038207;28;20036;-77
2021/07/27 02:53:56;;;;;;;9.13;6.38;;;;;;;;;;5042516;28;20037;-78
2021/07/27 02:56:21;;;;;;;9.68;5.70;;;;;;;;;;5038565;28;20466;-78
2021/07/27 02:58:46;;;;;;;8.45;5.88;;;;;;;;;;5041933;28;20021;-78
2021/07/27 03:01:12;;;;;;;8.65;6.07;;;;;;;;;;5045064;28;20056;-78
2021/07/27 03:03:37;;;;;;;12.00;6.13;;;;;;;;;;5044918;28;20025;-77
2021/07/27 03:06:03;;;;;;;10.30;6.60;;;;;;;;;;5038552;28;20035;-78
2021/07/27 03:08:47;;;;;;;12.93;6.75;;;;;;;;;;5044922;28;20020;-78
2021/07/27 03:11:16;;;;;;;12.23;6.70;;;;;;;;;;5039362;28;20035;-78
2021/07/27 03:13:41;;;;;;;9.43;6.68;;;;;;;;;;5041405;28;20021;-78
2021/07/27 03:16:07;;;;;;;9.13;6.30;;;;;;;;;;5040178;28;20067;-78
2021/07/27 03:18:33;;;;;;;11.30;6.93;;;;;;;;;;5037251;28;20025;-78
2021/07/27 03:20:59;;;;;;;9.88;6.85;;;;;;;;;;5040982;28;20138;-78
2021/07/27 03:23:28;;;;;;;11.75;6.85;;;;;;;;;;5042190;28;20120;-78
2021/07/27 03:25:53;;;;;;;9.45;6.78;;;;;;;;;;5042477;28;20134;-78
2021/07/27 03:28:19;;;;;;;14.05;6.38;;;;;;;;;;5045550;28;20242;-77
2021/07/27 03:30:45;;;;;;;8.20;6.28;;;;;;;;;;5041677;28;20033;-78
2021/07/27 03:33:14;;;;;;;11.70;6.00;;;;;;;;;;5047370;28;20033;-78
2021/07/27 03:35:39;;;;;;;12.23;6.35;;;;;;;;;;5041764;28;20071;-78
2021/07/27 03:38:05;;;;;;;12.10;5.85;;;;;;;;;;5046165;28;20024;-78
2021/07/27 03:40:34;;;;;;;10.02;5.85;;;;;;;;;;5042613;28;20025;-77
2021/07/27 03:43:00;;;;;;;9.63;6.05;;;;;;;;;;5045265;28;20033;-78
2021/07/27 03:45:25;;;;;;;9.90;6.38;;;;;;;;;;5044520;28;20024;-78
2021/07/27 03:47:51;;;;;;;12.10;6.35;;;;;;;;;;5037538;28;20457;-78
2021/07/27 03:50:16;;;;;;;11.27;5.82;;;;;;;;;;5045706;28;20029;-78
2021/07/27 03:52:42;;;;;;;11.23;6.35;;;;;;;;;;5037916;28;20488;-78
2021/07/27 03:55:08;;;;;;;13.25;7.57;;;;;;;;;;5045529;28;20500;-77
2021/07/27 03:57:33;;;;;;;15.05;5.85;;;;;;;;;;5047618;28;20377;-77
2021/07/27 03:59:59;;;;;;;13.02;6.03;;;;;;;;;;5042337;28;20032;-78
2021/07/27 04:02:25;;;;;;;11.60;6.15;;;;;;;;;;5040207;28;20115;-78
2021/07/27 04:04:50;;;;;;;10.55;6.00;;;;;;;;;;5037536;28;20033;-77
2021/07/27 04:07:18;;;;;;;13.70;5.93;;;;;;;;;;5044328;28;20036;-78
2021/07/27 04:09:44;;;;;;;12.43;5.65;;;;;;;;;;5046786;28;20113;-77
2021/07/27 04:12:10;;;;;;;9.73;6.25;;;;;;;;;;5035722;28;20112;-77
2021/07/27 04:14:35;;;;;;;9.27;6.22;;;;;;;;;;5043255;28;20072;-78
2021/07/27 04:17:02;;;;;;;8.15;5.40;;;;;;;;;;5039645;28;20504;-78
2021/07/27 04:19:27;;;;;;;11.68;6.15;;;;;;;;;;5041020;28;20309;-77
2021/07/27 04:21:52;;;;;;;9.57;5.63;;;;;;;;;;5043118;28;20453;-77
2021/07/27 04:24:18;;;;;;;10.95;6.22;;;;;;;;;;5049550;28;20033;-77
2021/07/27 04:26:47;;;;;;;13.20;6.43;;;;;;;;;;5037898;28;20037;-76
2021/07/27 04:29:16;;;;;;;12.18;6.93;;;;;;;;;;5040702;28;20504;-77
2021/07/27 04:31:42;;;;;;;9.98;7.00;;;;;;;;;;5048095;28;20084;-77
2021/07/27 04:34:07;;;;;;;13.68;6.88;;;;;;;;;;5048715;28;20028;-78
2021/07/27 04:36:33;;;;;;;8.95;6.15;;;;;;;;;;5046095;28;20032;-77
2021/07/27 04:38:58;;;;;;;13.95;6.50;;;;;;;;;;5042765;28;20032;-76
2021/07/27 04:41:24;;;;;;;14.15;6.68;;;;;;;;;;5048830;28;20024;-77
2021/07/27 04:43:49;;;;;;;14.30;7.13;;;;;;;;;;5045277;28;20035;-77
2021/07/27 04:46:15;;;;;;;12.00;7.00;;;;;;;;;;5040463;28;20025;-77
2021/07/27 04:48:40;;;;;;;12.75;7.55;;;;;;;;;;5041618;28;20033;-77
2021/07/27 04:51:05;;;;;;;11.32;7.20;;;;;;;;;;5043657;28;20021;-76
2021/07/27 04:53:35;;;;;;;9.43;6.63;;;;;;;;;;5046442;28;20107;-76
2021/07/27 04:56:01;;;;;;;15.80;9.00;;;;;;;;;;5054610;28;20025;-76
2021/07/27 04:58:26;;;;;;;10.15;7.60;;;;;;;;;;5047347;28;20087;-77
2021/07/27 05:00:52;;;;;;;11.60;6.65;;;;;;;;;;5043037;28;20021;-77
2021/07/27 05:03:17;;;;;;;9.35;6.35;;;;;;;;;;5043454;28;20028;-77
2021/07/27 05:05:43;;;;;;;12.70;6.70;;;;;;;;;;5040990;28;20045;-77
2021/07/27 05:08:08;;;;;;;10.93;7.10;;;;;;;;;;5041925;28;20444;-77
2021/07/27 05:10:34;;;;;;;10.70;7.55;;;;;;;;;;5045211;28;20098;-77
2021/07/27 05:12:59;;;;;;;12.93;8.80;;;;;;;;;;5048365;28;20021;-80
2021/07/27 05:15:25;;;;;;;15.10;9.10;;;;;;;;;;5041725;28;20276;-79
2021/07/27 05:18:00;;;;;;;12.18;6.95;;;;;;;;;;5045224;28;20029;-79
2021/07/27 05:20:27;;;;;;;10.43;7.25;;;;;;;;;;5041195;28;20079;-79
2021/07/27 05:22:52;;;;;;;11.88;7.00;;;;;;;;;;5036623;28;20104;-79
2021/07/27 05:25:18;;;;;;;16.52;7.63;;;;;;;;;;5041339;28;20119;-80
2021/07/27 05:27:44;;;;;;;17.60;10.55;;;;;;;;;;5039545;28;20112;-80
2021/07/27 05:30:12;;;;;;;20.08;12.30;;;;;;;;;;5038777;28;20100;-80
2021/07/27 05:32:37;;;;;;;11.05;7.90;;;;;;;;;;5043040;28;20562;-79
2021/07/27 05:35:03;;;;;;;11.07;7.35;;;;;;;;;;5036562;28;20045;-79
2021/07/27 05:37:29;;;;;;;11.82;7.45;;;;;;;;;;5034746;28;20028;-79
2021/07/27 05:39:55;;;;;;;13.57;7.65;;;;;;;;;;5044402;28;20029;-80
2021/07/27 05:42:21;;;;;;;10.90;7.75;;;;;;;;;;5041068;28;20044;-80
2021/07/27 05:44:46;;;;;;;12.35;7.53;;;;;;;;;;5039556;28;20431;-79
2021/07/27 05:47:12;;;;;;;15.75;9.05;;;;;;;;;;5035645;28;20490;-78
2021/07/27 05:49:38;;;;;;;12.30;7.22;;;;;;;;;;5038038;28;20087;-79
2021/07/27 05:52:04;;;;;;;12.95;7.30;;;;;;;;;;5038935;28;20037;-79
2021/07/27 05:54:29;;;;;;;12.65;7.57;;;;;;;;;;5041175;28;20335;-79
2021/07/27 05:56:55;;;;;;;10.38;7.13;;;;;;;;;;5044636;28;20025;-79
2021/07/27 05:59:21;;;;;;;11.70;7.30;;;;;;;;;;5038951;28;20029;-79
2021/07/27 06:01:48;;;;;;;11.30;7.55;;;;;;;;;;5037979;28;20547;-79
2021/07/27 06:04:13;;;;;;;11.60;7.57;;;;;;;;;;5042957;28;20063;-79
2021/07/27 06:06:39;;;;;;;15.52;7.82;;;;;;;;;;5036900;28;20320;-80
2021/07/27 06:09:06;;;;;;;13.60;8.05;;;;;;;;;;5036785;28;20028;-79
2021/07/27 06:11:34;;;;;;;10.73;7.50;;;;;;;;;;5035771;28;20042;-79
2021/07/27 06:14:00;;;;;;;12.15;7.70;;;;;;;;;;5045790;28;20027;-78
2021/07/27 06:16:26;;;;;;;12.38;7.97;;;;;;;;;;5038613;28;20492;-79
2021/07/27 06:18:52;;;;;;;14.05;7.53;;;;;;;;;;5043667;28;20396;-80
2021/07/27 06:21:18;;;;;;;9.60;7.25;;;;;;;;;;5044789;28;20021;-80
2021/07/27 06:23:43;;;;;;;13.35;8.55;;;;;;;;;;5041570;28;20069;-79
2021/07/27 06:26:09;;;;;;;11.63;8.05;;;;;;;;;;5043168;28;20033;-79
2021/07/27 06:28:34;;;;;;;11.00;7.70;;;;;;;;;;5036537;28;20035;-79
2021/07/27 06:31:04;;;;;;;11.15;7.75;;;;;;;;;;5039853;28;20112;-79
2021/07/27 06:33:29;;;;;;;11.05;7.35;;;;;;;;;;5038712;28;20036;-79
2021/07/27 06:35:56;;;;;;;10.73;7.35;;;;;;;;;;5032398;28;20025;-79
2021/07/27 06:38:23;;;;;;;10.98;7.15;;;;;;;;;;5040242;28;20021;-79
2021/07/27 06:40:49;;;;;;;10.55;7.75;;;;;;;;;;5036260;28;20045;-76
2021/07/27 06:43:14;;;;;;;13.02;7.03;;;;;;;;;;5043622;28;20075;-76
2021/07/27 06:45:40;;;;;;;12.38;7.70;;;;;;;;;;5043827;28;20028;-76
2021/07/27 06:48:06;;;;;;;13.13;7.55;;;;;;;;;;5044797;28;20037;-76
2021/07/27 06:50:31;;;;;;;9.63;7.18;;;;;;;;;;5035080;28;20034;-77
2021/07/27 06:52:56;;;;;;;10.85;7.53;;;;;;;;;;5039356;28;20507;-77
2021/07/27 06:55:22;;;;;;;11.15;7.05;;;;;;;;;;5033923;28;20538;-77
2021/07/27 06:57:47;;;;;;;11.70;7.43;;;;;;;;;;5040468;28;20037;-75
2021/07/27 07:00:14;;;;;;;12.93;7.82;;;;;;;;;;5033013;28;20037;-76
2021/07/27 07:02:39;;;;;;;12.88;7.32;;;;;;;;;;5047718;28;20052;-76
2021/07/27 07:05:05;;;;;;;10.23;7.25;;;;;;;;;;5041300;28;20051;-76
2021/07/27 07:07:30;;;;;;;10.18;6.68;;;;;;;;;;5042789;28;20025;-76
2021/07/27 07:09:56;;;;;;;10.23;6.93;;;;;;;;;;5042790;28;20025;-75
2021/07/27 07:12:23;;;;;;;11.90;7.60;;;;;;;;;;5049904;28;20338;-76
2021/07/27 07:14:53;;;;;;;9.98;6.18;;;;;;;;;;5041607;28;20389;-75
2021/07/27 07:17:19;;;;;;;13.38;7.03;;;;;;;;;;5039521;28;20418;-75
2021/07/27 07:19:44;;;;;;;9.50;6.90;;;;;;;;;;5038875;28;20112;-75
2021/07/27 07:22:11;;;;;;;10.15;7.03;;;;;;;;;;5042466;28;20029;-76
2021/07/27 07:24:36;;;;;;;11.75;7.38;;;;;;;;;;5049394;28;20094;-75
2021/07/27 07:27:02;;;;;;;8.93;7.10;;;;;;;;;;5041703;28;20029;-75
2021/07/27 07:29:27;;;;;;;12.80;7.47;;;;;;;;;;5039487;28;20040;-76
2021/07/27 07:31:52;;;;;;;9.43;6.63;;;;;;;;;;5043684;28;20025;-75
2021/07/27 07:34:18;;;;;;;12.73;6.32;;;;;;;;;;5037147;28;20064;-76
2021/07/27 07:36:43;;;;;;;9.73;7.05;;;;;;;;;;5046533;28;20044;-76
2021/07/27 07:39:09;;;;;;;9.77;6.60;;;;;;;;;;5046762;28;20590;-76
2021/07/27 07:41:34;;;;;;;10.43;6.45;;;;;;;;;;5042973;28;20017;-76
2021/07/27 07:44:00;;;;;;;10.13;6.95;;;;;;;;;;5041983;28;20400;-76
2021/07/27 07:46:25;;;;;;;11.60;7.45;;;;;;;;;;5036222;28;20105;-76
2021/07/27 07:48:50;;;;;;;9.20;6.25;;;;;;;;;;5041419;28;20025;-76
2021/07/27 07:51:16;;;;;;;8.68;6.28;;;;;;;;;;5047866;28;20043;-76
2021/07/27 07:53:41;;;;;;;10.98;6.25;;;;;;;;;;5061568;28;20169;-76
2021/07/27 07:56:10;;;;;;;8.77;6.43;;;;;;;;;;5044228;28;20035;-78
2021/07/27 07:58:35;;;;;;;9.02;6.63;;;;;;;;;;5047443;28;20025;-76
2021/07/27 08:01:01;;;;;;;10.48;6.47;;;;;;;;;;5045649;28;20028;-75
2021/07/27 08:03:26;;;;;;;9.75;6.25;;;;;;;;;;5041490;28;20063;-75
2021/07/27 08:05:52;;;;;;;8.90;6.28;;;;;;;;;;5046197;28;20036;-76
2021/07/27 08:08:19;;;;;;;8.60;5.95;;;;;;;;;;5046680;28;20040;-76
2021/07/27 08:10:45;;;;;;;10.77;5.75;;;;;;;;;;5040888;28;20025;-76
2021/07/27 08:13:10;;;;;;;9.20;6.30;;;;;;;;;;5048603;28;20033;-76
2021/07/27 08:15:36;;;;;;;9.98;6.20;;;;;;;;;;5044951;28;20040;-76
2021/07/27 08:18:02;;;;;;;9.10;5.93;;;;;;;;;;5034415;28;20025;-76
2021/07/27 08:20:29;;;;;;;9.10;5.75;;;;;;;;;;5036137;28;20040;-76
2021/07/27 08:22:57;;;;;;;11.27;5.88;;;;;;;;;;5038753;28;20025;-76
2021/07/27 08:25:23;;;;;;;10.07;6.45;;;;;;;;;;5044670;28;20021;-76
2021/07/27 08:27:48;;;;;;;10.23;6.22;;;;;;;;;;5047430;28;20036;-76
2021/07/27 08:30:15;;;;;;;7.40;5.68;;;;;;;;;;5039022;28;20031;-76
2021/07/27 08:32:45;;;;;;;9.77;6.18;;;;;;;;;;5042208;28;20116;-76
2021/07/27 08:35:10;;;;;;;7.47;5.63;;;;;;;;;;5039284;28;20025;-76
2021/07/27 08:37:36;;;;;;;9.00;5.85;;;;;;;;;;5041919;28;20033;-76
2021/07/27 08:40:01;;;;;;;10.30;6.80;;;;;;;;;;5041966;28;20033;-76
2021/07/27 08:42:29;;;;;;;9.52;5.93;;;;;;;;;;5041582;28;20021;-76
2021/07/27 08:44:57;;;;;;;7.88;6.18;;;;;;;;;;5046473;28;20072;-76
2021/07/27 08:47:23;;;;;;;7.88;5.57;;;;;;;;;;5034340;28;20124;-76
2021/07/27 08:49:49;;;;;;;10.13;5.80;;;;;;;;;;5048911;28;20104;-76
2021/07/27 08:52:14;;;;;;;11.15;6.60;;;;;;;;;;5047178;28;20573;-76
2021/07/27 08:54:43;;;;;;;10.43;6.40;;;;;;;;;;5045553;28;20025;-75
2021/07/27 08:57:13;;;;;;;10.97;6.40;;;;;;;;;;5040624;28;20022;-76
2021/07/27 08:59:39;;;;;;;9.05;5.97;;;;;;;;;;5040785;28;20133;-76
2021/07/27 09:02:05;;;;;;;8.60;5.85;;;;;;;;;;5038342;28;20029;-76
2021/07/27 09:04:30;;;;;;;8.25;5.93;;;;;;;;;;5041125;28;20400;-76
2021/07/27 09:07:03;;;;;;;7.80;6.05;;;;;;;;;;5047080;28;20389;-76
2021/07/27 09:09:30;;;;;;;10.63;6.47;;;;;;;;;;5038021;28;20435;-76
2021/07/27 09:11:57;;;;;;;9.00;6.30;;;;;;;;;;5046535;28;20028;-76
2021/07/27 09:14:25;;;;;;;11.43;6.07;;;;;;;;;;5039987;28;20032;-76
2021/07/27 09:16:55;;;;;;;17.77;6.78;;;;;;;;;;5037688;28;20817;-76
2021/07/27 09:19:21;;;;;;;7.78;6.00;;;;;;;;;;5043421;28;20033;-76
2021/07/27 09:21:47;;;;;;;7.95;5.65;;;;;;;;;;5040843;28;20043;-76
2021/07/27 09:24:22;;;;;;;10.15;5.93;;;;;;;;;;5045944;28;20025;-76
2021/07/27 09:27:01;;;;;;;7.47;5.85;;;;;;;;;;5032406;28;20030;-76
2021/07/27 09:29:30;;;;;;;;;;;;;;;;;;5040861;28;20033;-76
2021/07/27 09:32:00;;;;;;;8.30;5.55;;;;;;;;;;5042775;28;20428;-76
2021/07/27 09:34:29;;;;;;;8.98;5.97;;;;;;;;;;5042615;28;20029;-76
2021/07/27 09:37:07;;;;;;;;;;;;;;;;;;5041991;28;20031;-75
2021/07/27 09:39:33;;;;;;;8.13;6.18;;;;;;;;;;5043927;28;19917;-76
2021/07/27 09:42:01;;;;;;;10.35;6.05;;;;;;;;;;5039502;28;20041;-77
2021/07/27 09:44:28;;;;;;;8.90;5.45;;;;;;;;;;5043188;28;20033;-76
2021/07/27 09:46:55;;;;;;;7.20;5.53;;;;;;;;;;5045279;28;20120;-76
2021/07/27 09:49:21;;;;;;;10.93;5.93;;;;;;;;;;5037268;28;20040;-76
2021/07/27 09:51:49;;;;;;;8.05;5.63;;;;;;;;;;5034388;28;20025;-76
2021/07/27 09:54:14;;;;;;;7.43;5.75;;;;;;;;;;5040394;28;20025;-76
2021/07/27 09:56:43;;;;;;;7.75;6.20;;;;;;;;;;5041715;28;20083;-75
2021/07/27 09:59:08;;;;;;;7.28;5.57;;;;;;;;;;5044132;28;20630;-76
2021/07/27 10:01:36;;;;;;;7.18;5.40;;;;;;;;;;5040082;28;20024;-80
2021/07/27 10:04:03;;;;;;;8.15;5.25;;;;;;;;;;5037690;28;20055;-76
2021/07/27 10:06:44;;;;;;;8.82;5.88;;;;;;;;;;5040153;28;20024;-76
2021/07/27 10:09:10;;;;;;;7.00;5.20;;;;;;;;;;5036568;28;20021;-75
2021/07/27 10:11:43;;;;;;;9.23;5.25;;;;;;;;;;5044633;28;20028;-75
2021/07/27 10:14:14;;;;;;;6.57;5.60;;;;;;;;;;5040478;28;20032;-75
2021/07/27 10:16:39;;;;;;;7.90;5.70;;;;;;;;;;5033373;28;20034;-76
2021/07/27 10:19:22;;;;;;;8.52;5.38;;;;;;;;;;5040238;28;20034;-75
2021/07/27 10:22:09;;;;;;;7.63;5.50;;;;;;;;;;5041840;28;20029;-75
2021/07/27 10:24:45;;;;;;;7.25;6.00;;;;;;;;;;5038693;28;20034;-79
2021/07/27 10:27:18;;;;;;;6.47;5.15;;;;;;;;;;5044497;28;20029;-78
2021/07/27 10:29:44;;;;;;;7.07;5.30;;;;;;;;;;5058457;28;20096;-78
2021/07/27 10:32:19;;;;;;;7.78;5.70;;;;;;;;;;5042254;28;20053;-78
2021/07/27 10:34:45;;;;;;;6.15;5.43;;;;;;;;;;5040194;28;20055;-78
2021/07/27 10:37:16;;;;;;;9.13;5.95;;;;;;;;;;5044284;28;20025;-77
2021/07/27 10:39:49;;;;;;;6.32;5.00;;;;;;;;;;5042505;28;20100;-79
2021/07/27 10:42:16;;;;;;;9.52;6.00;;;;;;;;;;5036800;28;20021;-78
2021/07/27 10:44:42;;;;;;;7.72;5.97;;;;;;;;;;5039192;28;20035;-77
2021/07/27 10:47:08;;;;;;;8.18;5.70;;;;;;;;;;5033743;28;20013;-77
2021/07/27 10:49:33;;;;;;;8.85;5.57;;;;;;;;;;5046646;28;20025;-77
2021/07/27 10:52:01;;;;;;;8.05;5.95;;;;;;;;;;5037556;28;20063;-78
2021/07/27 10:54:32;;;;;;;7.03;5.80;;;;;;;;;;5041828;28;20071;-78
2021/07/27 10:57:07;;;;;;;9.20;5.63;;;;;;;;;;5036950;28;20489;-78
2021/07/27 10:59:37;;;;;;;6.80;5.55;;;;;;;;;;5035623;28;20070;-77
2021/07/27 11:02:10;;;;;;;7.32;5.75;;;;;;;;;;5032141;28;20172;-77
2021/07/27 11:04:36;;;;;;;8.10;6.00;;;;;;;;;;5042195;28;20029;-78
2021/07/27 11:07:32;;;;;;;6.72;5.05;;;;;;;;;;5041306;28;20099;-78
2021/07/27 11:09:58;;;;;;;8.85;5.53;;;;;;;;;;5040043;28;20567;-78
2021/07/27 11:12:40;;;;;;;9.43;5.57;;;;;;;;;;5040836;28;20028;-79
2021/07/27 11:15:06;;;;;;;8.35;5.40;;;;;;;;;;5036406;28;20672;-77
2021/07/27 11:17:31;;;;;;;7.93;5.78;;;;;;;;;;5033941;28;20041;-77
2021/07/27 11:20:01;;;;;;;6.30;5.07;;;;;;;;;;5037742;28;20036;-78
2021/07/27 11:22:26;;;;;;;8.13;5.85;;;;;;;;;;5034106;28;20048;-78
2021/07/27 11:24:55;;;;;;;7.93;5.53;;;;;;;;;;5036558;28;20033;-77
2021/07/27 11:27:31;;;;;;;6.05;5.45;;;;;;;;;;5040821;28;20059;-77
2021/07/27 11:30:02;;;;;;;10.70;6.22;;;;;;;;;;5038129;28;20485;-77
2021/07/27 11:32:42;;;;;;;7.53;5.55;;;;;;;;;;5037738;28;20029;-76
2021/07/27 11:35:15;;;;;;;8.45;5.93;;;;;;;;;;5038409;28;20485;-77
2021/07/27 11:37:42;;;;;;;7.75;5.72;;;;;;;;;;5042040;28;20029;-77
2021/07/27 11:40:22;;;;;;;6.45;5.53;;;;;;;;;;5044573;28;20051;-77
2021/07/27 11:43:05;;;;;;;6.97;5.30;;;;;;;;;;5041496;28;20029;-77
2021/07/27 11:45:30;;;;;;;7.35;5.35;;;;;;;;;;5040771;28;20141;-75
2021/07/27 11:47:56;;;;;;;6.30;5.70;;;;;;;;;;5044891;28;20187;-76
2021/07/27 11:50:30;;;;;;;7.47;5.20;;;;;;;;;;5047503;28;20150;-75
2021/07/27 11:52:58;;;;;;;6.78;5.57;;;;;;;;;;5039245;28;20033;-75
2021/07/27 11:55:40;;;;;;;7.10;5.60;;;;;;;;;;5044697;28;20123;-74
2021/07/27 11:58:09;;;;;;;7.78;5.72;;;;;;;;;;5040305;28;20025;-75
2021/07/27 12:00:36;;;;;;;8.65;6.00;;;;;;;;;;5041528;28;20435;-75
2021/07/27 12:03:06;;;;;;;6.63;5.72;;;;;;;;;;5042936;28;20024;-75
2021/07/27 12:05:32;;;;;;;6.82;5.80;;;;;;;;;;5040168;28;20028;-75
2021/07/27 12:07:58;;;;;;;7.18;5.38;;;;;;;;;;5043374;28;20029;-75
2021/07/27 12:10:24;;;;;;;9.50;5.35;;;;;;;;;;5037524;28;20430;-75
2021/07/27 12:12:50;;;;;;;6.30;5.43;;;;;;;;;;5041171;28;20606;-75
2021/07/27 12:15:17;;;;;;;8.50;6.03;;;;;;;;;;5050255;28;20032;-75
2021/07/27 12:17:43;;;;;;;7.40;5.30;;;;;;;;;;5050888;28;20492;-75
2021/07/27 12:20:11;;;;;;;6.68;5.95;;;;;;;;;;5047185;28;20029;-76
2021/07/27 12:22:37;;;;;;;;;;;;;;;;;;5047930;28;20044;-76
2021/07/27 12:25:03;;;;;;;7.47;5.90;;;;;;;;;;5041234;28;19913;-76
2021/07/27 12:27:29;;;;;;;10.40;6.10;;;;;;;;;;5045621;28;20033;-78
2021/07/27 12:29:54;;;;;;;7.45;6.22;;;;;;;;;;5046076;28;20373;-78
2021/07/27 12:32:20;;;;;;;9.23;5.93;;;;;;;;;;5045267;28;20075;-77
2021/07/27 12:34:45;;;;;;;8.07;5.93;;;;;;;;;;5044698;28;20633;-78
2021/07/27 12:37:11;;;;;;;7.88;5.63;;;;;;;;;;5044904;28;20021;-78
2021/07/27 12:39:37;;;;;;;6.68;5.72;;;;;;;;;;5041090;28;20025;-78
2021/07/27 12:42:03;;;;;;;11.00;6.53;;;;;;;;;;5037863;28;20086;-78
2021/07/27 12:44:28;;;;;;;6.28;5.50;;;;;;;;;;5047447;28;20048;-78
2021/07/27 12:46:54;;;;;;;8.10;6.28;;;;;;;;;;5045113;28;20037;-78
2021/07/27 12:49:20;;;;;;;7.32;6.22;;;;;;;;;;5045679;28;20032;-80
2021/07/27 12:51:45;;;;;;;8.05;5.90;;;;;;;;;;5047538;28;20029;-80
2021/07/27 12:54:11;;;;;;;8.55;5.78;;;;;;;;;;5047369;28;20029;-79
2021/07/27 12:56:38;;;;;;;7.82;5.70;;;;;;;;;;5044880;28;20033;-78
2021/07/27 12:59:07;;;;;;;7.43;5.95;;;;;;;;;;5037143;28;20048;-79
2021/07/27 13:01:33;;;;;;;9.25;5.88;;;;;;;;;;5043116;28;20040;-79
2021/07/27 13:04:00;;;;;;;8.00;5.97;;;;;;;;;;5043105;28;20100;-79
2021/07/27 13:06:25;;;;;;;8.32;6.05;;;;;;;;;;5041692;28;20025;-79
2021/07/27 13:08:50;;;;;;;7.45;5.88;;;;;;;;;;5048181;28;20048;-79
2021/07/27 13:11:16;;;;;;;6.35;5.60;;;;;;;;;;5039298;28;20040;-79
2021/07/27 13:13:41;;;;;;;8.63;6.13;;;;;;;;;;5055962;28;20432;-79
2021/07/27 13:16:07;;;;;;;6.90;5.68;;;;;;;;;;5042776;28;20040;-78
2021/07/27 13:18:34;;;;;;;6.95;5.55;;;;;;;;;;5035918;28;20116;-78
2021/07/27 13:21:00;;;;;;;10.00;5.63;;;;;;;;;;5043162;28;20029;-78
2021/07/27 13:23:25;;;;;;;6.10;5.38;;;;;;;;;;5033652;28;20094;-78
2021/07/27 13:25:51;;;;;;;7.45;5.20;;;;;;;;;;5044057;28;20066;-77
2021/07/27 13:28:16;;;;;;;8.63;5.95;;;;;;;;;;5041625;28;20029;-78
2021/07/27 13:30:42;;;;;;;6.72;5.40;;;;;;;;;;5036291;28;20140;-77
2021/07/27 13:33:07;;;;;;;6.90;5.18;;;;;;;;;;5042482;28;20062;-78
2021/07/27 13:35:33;;;;;;;6.95;5.40;;;;;;;;;;5040199;28;20123;-78
2021/07/27 13:37:58;;;;;;;8.23;4.95;;;;;;;;;;5045539;28;20107;-78
2021/07/27 13:40:24;;;;;;;9.27;5.43;;;;;;;;;;5032546;28;20029;-75
2021/07/27 13:42:49;;;;;;;8.15;5.43;;;;;;;;;;5043222;28;20056;-76
2021/07/27 13:45:15;;;;;;;8.52;5.50;;;;;;;;;;5039160;28;20029;-76
2021/07/27 13:47:41;;;;;;;7.15;5.50;;;;;;;;;;5043320;28;20369;-76
2021/07/27 13:50:07;;;;;;;7.03;5.32;;;;;;;;;;5034064;28;20029;-76
2021/07/27 13:52:33;;;;;;;6.38;5.30;;;;;;;;;;5043122;28;20041;-76
2021/07/27 13:54:58;;;;;;;7.07;5.05;;;;;;;;;;5033927;28;20090;-76
2021/07/27 13:57:24;;;;;;;6.10;5.22;;;;;;;;;;5041770;28;20024;-76
2021/07/27 13:59:49;;;;;;;7.10;5.53;;;;;;;;;;5040647;28;20431;-76
2021/07/27 14:02:15;;;;;;;7.03;5.63;;;;;;;;;;5039880;28;20166;-76
2021/07/27 14:04:41;;;;;;;6.97;5.25;;;;;;;;;;5057141;28;20397;-76
2021/07/27 14:07:06;;;;;;;8.57;5.78;;;;;;;;;;5042534;28;20112;-75
2021/07/27 14:09:33;;;;;;;6.72;5.78;;;;;;;;;;5054100;28;20060;-76
2021/07/27 14:11:59;;;;;;;7.13;5.75;;;;;;;;;;5040586;28;20028;-77
2021/07/27 14:14:25;;;;;;;8.77;5.35;;;;;;;;;;5039148;28;20036;-76
2021/07/27 14:16:50;;;;;;;7.10;5.22;;;;;;;;;;5040036;28;20091;-76
2021/07/27 14:19:16;;;;;;;6.05;5.05;;;;;;;;;;5042352;28;20107;-77
2021/07/27 14:21:41;;;;;;;8.98;6.82;;;;;;;;;;5046105;28;20125;-76
2021/07/27 14:24:07;;;;;;;9.68;7.00;;;;;;;;;;5046334;28;20107;-76
2021/07/27 14:26:33;;;;;;;12.00;7.60;;;;;;;;;;5030606;28;20068;-76
2021/07/27 14:28:59;;;;;;;8.20;6.50;;;;;;;;;;5043233;28;20021;-74
2021/07/27 14:31:24;;;;;;;7.22;6.40;;;;;;;;;;5042495;28;20111;-75
2021/07/27 14:33:50;;;;;;;7.63;6.28;;;;;;;;;;5043624;28;20044;-75
2021/07/27 14:36:15;;;;;;;11.40;6.80;;;;;;;;;;5046681;28;20133;-75
2021/07/27 14:38:43;;;;;;;8.27;6.35;;;;;;;;;;5042987;28;20435;-77
2021/07/27 14:41:10;;;;;;;6.90;6.13;;;;;;;;;;5033552;28;20669;-76
2021/07/27 14:43:36;;;;;;;7.93;5.50;;;;;;;;;;5040938;28;20240;-77
2021/07/27 14:46:03;;;;;;;6.75;5.63;;;;;;;;;;5043065;28;20024;-77
2021/07/27 14:48:29;;;;;;;7.78;5.82;;;;;;;;;;5043347;28;20127;-77
2021/07/27 14:50:55;;;;;;;7.10;5.80;;;;;;;;;;5041734;28;20135;-77
2021/07/27 14:53:21;;;;;;;11.95;6.95;;;;;;;;;;5041303;28;20025;-78
2021/07/27 14:55:46;;;;;;;7.18;5.68;;;;;;;;;;5037131;28;20102;-78
2021/07/27 14:58:12;;;;;;;9.52;5.60;;;;;;;;;;5038251;28;20021;-78